createdAt,value
2022-11-21T00:01:25.843Z,100.00
2022-11-21T00:03:53.010Z,100.00
2022-11-21T00:06:20.603Z,100.00
2022-11-21T00:08:47.712Z,100.00
2022-11-21T00:11:14.872Z,100.00
2022-11-21T00:13:42.498Z,100.00
2022-11-21T00:16:13.510Z,100.00
2022-11-21T00:18:40.596Z,100.00
2022-11-21T00:21:19.017Z,100.00
2022-11-21T00:23:47.668Z,100.00
2022-11-21T00:26:16.374Z,100.00
2022-11-21T00:28:43.872Z,100.00
2022-11-21T00:31:23.279Z,100.00
2022-11-21T00:33:50.273Z,100.00
2022-11-21T00:36:17.289Z,100.00
2022-11-21T00:38:44.230Z,100.00
2022-11-21T00:41:11.167Z,100.00
2022-11-21T00:43:38.097Z,100.00
2022-11-21T00:46:05.344Z,100.00
2022-11-21T00:48:32.979Z,100.00
2022-11-21T00:51:03.450Z,100.00
2022-11-21T00:53:30.809Z,100.00
2022-11-21T00:55:58.620Z,100.00
2022-11-21T00:58:26.337Z,100.00
2022-11-21T01:01:01.575Z,100.00
2022-11-21T01:03:28.543Z,100.00
2022-11-21T01:06:08.552Z,100.00
2022-11-21T01:08:38.281Z,100.00
2022-11-21T01:11:07.741Z,100.00
2022-11-21T01:13:35.259Z,100.00
2022-11-21T01:16:19.700Z,100.00
2022-11-21T01:18:47.407Z,100.00
2022-11-21T01:21:24.454Z,100.00
2022-11-21T01:23:52.153Z,100.00
2022-11-21T01:26:25.009Z,100.00
2022-11-21T01:28:52.177Z,100.00
2022-11-21T01:31:23.061Z,100.00
2022-11-21T01:33:50.821Z,100.00
2022-11-21T01:36:29.621Z,100.00
2022-11-21T01:39:01.695Z,100.00
2022-11-21T01:41:35.702Z,100.00
2022-11-21T01:44:26.886Z,100.00
2022-11-21T01:46:54.558Z,100.00
2022-11-21T01:49:32.591Z,100.00
2022-11-21T01:52:15.367Z,100.00
2022-11-21T01:54:55.536Z,100.00
2022-11-21T01:57:32.230Z,100.00
2022-11-21T02:00:25.206Z,100.00
2022-11-21T02:02:59.112Z,100.00
2022-11-21T02:05:31.458Z,100.00
2022-11-21T02:08:05.830Z,100.00
2022-11-21T02:10:34.641Z,100.00
2022-11-21T02:13:02.201Z,100.00
2022-11-21T02:15:30.356Z,100.00
2022-11-21T02:17:57.324Z,100.00
2022-11-21T02:20:29.043Z,100.00
2022-11-21T02:23:19.327Z,100.00
2022-11-21T02:25:46.347Z,100.00
2022-11-21T02:28:16.705Z,100.00
2022-11-21T02:30:44.542Z,100.00
2022-11-21T02:33:13.057Z,100.00
2022-11-21T02:35:40.927Z,100.00
2022-11-21T02:38:27.849Z,100.00
2022-11-21T02:41:26.292Z,100.00
2022-11-21T02:44:27.736Z,100.00
2022-11-21T02:46:55.022Z,100.00
2022-11-21T02:49:38.349Z,100.00
2022-11-21T02:52:05.508Z,100.00
2022-11-21T02:54:32.567Z,100.00
2022-11-21T02:56:59.548Z,100.00
2022-11-21T02:59:26.534Z,100.00
2022-11-21T03:01:53.544Z,100.00
2022-11-21T03:04:20.611Z,100.00
2022-11-21T03:06:47.936Z,100.00
2022-11-21T03:09:14.878Z,100.00
2022-11-21T03:11:41.798Z,100.00
2022-11-21T03:14:08.825Z,100.00
2022-11-21T03:16:35.768Z,100.00
2022-11-21T03:19:02.977Z,100.00
2022-11-21T03:21:29.962Z,100.00
2022-11-21T03:23:56.956Z,100.00
2022-11-21T03:26:24.007Z,100.00
2022-11-21T03:28:51.011Z,100.00
2022-11-21T03:31:18.054Z,100.00
2022-11-21T03:33:45.014Z,100.00
2022-11-21T03:36:12.018Z,100.00
2022-11-21T03:38:38.944Z,100.00
2022-11-21T03:41:26.637Z,100.00
2022-11-21T03:43:53.694Z,100.00
2022-11-21T03:46:20.668Z,100.00
2022-11-21T03:48:47.636Z,100.00
2022-11-21T03:51:14.591Z,100.00
2022-11-21T03:53:41.556Z,100.00
2022-11-21T03:56:08.574Z,100.00
2022-11-21T03:58:35.593Z,100.00
2022-11-21T04:01:02.818Z,100.00
2022-11-21T04:03:30.033Z,100.00
2022-11-21T04:05:57.463Z,100.00
2022-11-21T04:08:25.236Z,100.00
2022-11-21T04:10:56.110Z,100.00
2022-11-21T04:13:23.500Z,100.00
2022-11-21T04:15:50.683Z,100.00
2022-11-21T04:18:17.690Z,100.00
2022-11-21T04:20:44.920Z,100.00
2022-11-21T04:23:12.055Z,100.00
2022-11-21T04:25:39.078Z,100.00
2022-11-21T04:28:06.505Z,100.00
2022-11-21T04:30:34.788Z,100.00
2022-11-21T04:33:01.802Z,100.00
2022-11-21T04:35:29.050Z,100.00
2022-11-21T04:37:56.124Z,100.00
2022-11-21T04:40:23.198Z,100.00
2022-11-21T04:42:50.310Z,100.00
2022-11-21T04:45:17.787Z,100.00
2022-11-21T04:47:46.795Z,100.00
2022-11-21T04:50:19.939Z,100.00
2022-11-21T04:52:54.993Z,100.00
2022-11-21T04:55:25.914Z,100.00
2022-11-21T04:57:53.022Z,100.00
2022-11-21T05:00:24.237Z,100.00
2022-11-21T05:02:51.716Z,100.00
2022-11-21T05:05:18.654Z,100.00
2022-11-21T05:07:45.648Z,100.00
2022-11-21T05:10:12.736Z,100.00
2022-11-21T05:12:57.931Z,100.00
2022-11-21T05:15:25.283Z,100.00
2022-11-21T05:17:52.463Z,100.00
2022-11-21T05:20:19.523Z,100.00
2022-11-21T05:22:52.050Z,100.00
2022-11-21T05:25:18.986Z,100.00
2022-11-21T05:27:45.906Z,100.00
2022-11-21T05:30:13.099Z,100.00
2022-11-21T05:32:40.417Z,100.00
2022-11-21T05:35:08.154Z,100.00
2022-11-21T05:37:35.179Z,100.00
2022-11-21T05:40:02.141Z,100.00
2022-11-21T05:42:47.903Z,100.00
2022-11-21T05:45:14.852Z,100.00
2022-11-21T05:47:42.399Z,100.00
2022-11-21T05:50:09.689Z,100.00
2022-11-21T05:52:36.601Z,100.00
2022-11-21T05:55:03.803Z,100.00
2022-11-21T05:57:31.226Z,100.00
2022-11-21T05:59:58.168Z,100.00
2022-11-21T06:02:43.353Z,100.00
2022-11-21T06:05:10.301Z,100.00
2022-11-21T06:07:37.256Z,100.00
2022-11-21T06:10:04.859Z,100.00
2022-11-21T06:12:31.845Z,100.00
2022-11-21T06:14:58.780Z,100.00
2022-11-21T06:17:25.701Z,100.00
2022-11-21T06:19:52.856Z,100.00
2022-11-21T06:22:19.785Z,100.00
2022-11-21T06:24:46.703Z,100.00
2022-11-21T06:27:13.642Z,100.00
2022-11-21T06:29:40.571Z,100.00
2022-11-21T06:32:07.586Z,100.00
2022-11-21T06:34:34.489Z,100.00
2022-11-21T06:37:01.454Z,100.00
2022-11-21T06:39:28.588Z,100.00
2022-11-21T06:41:55.552Z,100.00
2022-11-21T06:44:22.464Z,100.00
2022-11-21T06:46:51.525Z,100.00
2022-11-21T06:49:19.263Z,100.00
2022-11-21T06:51:46.230Z,100.00
2022-11-21T06:54:16.709Z,100.00
2022-11-21T06:56:44.399Z,100.00
2022-11-21T06:59:11.402Z,100.00
2022-11-21T07:01:38.399Z,100.00
2022-11-21T07:04:05.379Z,100.00
2022-11-21T07:06:34.752Z,100.00
2022-11-21T07:11:48.601Z,100.00
2022-11-21T07:14:15.532Z,100.00
2022-11-21T07:16:42.477Z,100.00
2022-11-21T07:19:09.448Z,100.00
2022-11-21T07:21:36.390Z,100.00
2022-11-21T07:24:03.622Z,100.00
2022-11-21T07:26:30.546Z,100.00
2022-11-21T07:28:58.652Z,100.00
2022-11-21T07:31:25.583Z,100.00
2022-11-21T07:33:52.501Z,100.00
2022-11-21T07:36:19.413Z,100.00
2022-11-21T07:38:46.718Z,100.00
2022-11-21T07:41:13.789Z,100.00
2022-11-21T07:43:40.763Z,100.00
2022-11-21T07:46:07.718Z,100.00
2022-11-21T07:48:34.676Z,100.00
2022-11-21T07:51:04.958Z,100.00
2022-11-21T07:53:31.879Z,100.00
2022-11-21T07:55:59.975Z,100.00
2022-11-21T07:58:27.537Z,100.00
2022-11-21T08:00:54.587Z,100.00
2022-11-21T08:03:22.544Z,100.00
2022-11-21T08:05:49.625Z,100.00
2022-11-21T08:08:16.549Z,100.00
2022-11-21T08:10:45.659Z,100.00
2022-11-21T08:13:13.618Z,100.00
2022-11-21T08:15:41.278Z,100.00
2022-11-21T08:18:19.062Z,100.00
2022-11-21T08:20:46.578Z,100.00
2022-11-21T08:23:13.531Z,100.00
2022-11-21T08:25:42.100Z,100.00
2022-11-21T08:28:11.516Z,100.00
2022-11-21T08:30:40.240Z,100.00
2022-11-21T08:33:07.553Z,100.00
2022-11-21T08:35:38.117Z,100.00
2022-11-21T08:38:05.984Z,100.00
2022-11-21T08:40:33.945Z,100.00
2022-11-21T08:43:07.331Z,100.00
2022-11-21T08:45:36.190Z,100.00
2022-11-21T08:48:03.941Z,100.00
2022-11-21T08:50:32.041Z,100.00
2022-11-21T08:53:03.189Z,100.00
2022-11-21T08:55:30.661Z,100.00
2022-11-21T08:57:58.182Z,100.00
2022-11-21T09:00:25.632Z,100.00
2022-11-21T09:02:52.532Z,100.00
2022-11-21T09:05:19.471Z,100.00
2022-11-21T09:07:47.520Z,100.00
2022-11-21T09:10:15.222Z,100.00
2022-11-21T09:12:42.163Z,100.00
2022-11-21T09:15:29.329Z,100.00
2022-11-21T09:18:03.782Z,100.00
2022-11-21T09:20:39.765Z,100.00
2022-11-21T09:23:13.227Z,100.00
2022-11-21T09:25:41.395Z,100.00
2022-11-21T09:28:11.908Z,100.00
2022-11-21T09:30:40.009Z,100.00
2022-11-21T09:33:13.395Z,100.00
2022-11-21T09:35:40.401Z,100.00
2022-11-21T09:38:07.488Z,100.00
2022-11-21T09:40:35.872Z,100.00
2022-11-21T09:43:35.890Z,100.00
2022-11-21T09:46:19.548Z,100.00
2022-11-21T09:49:00.497Z,100.00
2022-11-21T09:51:31.232Z,100.00
2022-11-21T09:54:34.029Z,100.00
2022-11-21T09:57:01.901Z,100.00
2022-11-21T09:59:37.409Z,100.00
2022-11-21T10:02:18.552Z,100.00
2022-11-21T10:04:47.141Z,100.00
2022-11-21T10:07:30.691Z,100.00
2022-11-21T10:10:38.591Z,100.00
2022-11-21T10:13:45.850Z,100.00
2022-11-21T10:16:44.600Z,100.00
2022-11-21T10:19:31.009Z,100.00
2022-11-21T10:22:34.564Z,100.00
2022-11-21T10:25:17.542Z,100.00
2022-11-21T10:27:58.365Z,100.00
2022-11-21T10:30:25.623Z,100.00
2022-11-21T10:33:04.534Z,100.00
2022-11-21T10:35:42.862Z,100.00
2022-11-21T10:38:29.117Z,100.00
2022-11-21T10:41:12.779Z,100.00
2022-11-21T10:44:26.819Z,100.00
2022-11-21T10:46:59.383Z,100.00
2022-11-21T10:49:34.181Z,100.00
2022-11-21T10:52:19.140Z,100.00
2022-11-21T10:55:04.309Z,100.00
2022-11-21T10:57:47.042Z,100.00
2022-11-21T11:00:16.893Z,100.00
2022-11-21T11:03:07.775Z,100.00
2022-11-21T11:05:38.426Z,100.00
2022-11-21T11:08:14.603Z,100.00
2022-11-21T11:11:02.705Z,100.00
2022-11-21T11:13:50.294Z,100.00
2022-11-21T11:16:22.475Z,100.00
2022-11-21T11:19:05.105Z,100.00
2022-11-21T11:21:41.147Z,100.00
2022-11-21T11:24:10.890Z,100.00
2022-11-21T11:26:52.750Z,100.00
2022-11-21T11:29:23.772Z,100.00
2022-11-21T11:31:59.471Z,100.00
2022-11-21T11:34:37.788Z,100.00
2022-11-21T11:37:26.066Z,100.00
2022-11-21T11:40:31.238Z,100.00
2022-11-21T11:44:01.451Z,100.00
2022-11-21T11:47:04.105Z,100.00
2022-11-21T11:50:08.672Z,100.00
2022-11-21T11:52:50.604Z,100.00
2022-11-21T11:55:41.936Z,100.00
2022-11-21T11:58:33.733Z,100.00
2022-11-21T12:01:35.415Z,100.00
2022-11-21T12:04:17.170Z,100.00
2022-11-21T12:10:06.245Z,100.00
2022-11-21T12:12:39.424Z,100.00
2022-11-21T12:15:34.124Z,100.00
2022-11-21T12:18:19.402Z,100.00
2022-11-21T12:21:20.901Z,100.00
2022-11-21T12:23:56.579Z,100.00
2022-11-21T12:26:59.951Z,100.00
2022-11-21T12:30:10.416Z,100.00
2022-11-21T12:33:19.379Z,100.00
2022-11-21T12:36:04.711Z,100.00
2022-11-21T12:39:15.314Z,100.00
2022-11-21T12:42:30.886Z,100.00
2022-11-21T12:45:28.612Z,100.00
2022-11-21T12:48:47.167Z,100.00
2022-11-21T12:51:56.928Z,100.00
2022-11-21T12:54:53.562Z,100.00
2022-11-21T12:57:26.198Z,100.00
2022-11-21T13:00:24.989Z,100.00
2022-11-21T13:03:51.580Z,100.00
2022-11-21T13:06:31.986Z,100.00
2022-11-21T13:09:02.683Z,100.00
2022-11-21T13:11:59.780Z,100.00
2022-11-21T13:14:29.488Z,100.00
2022-11-21T13:17:25.360Z,100.00
2022-11-21T13:20:01.579Z,100.00
2022-11-21T13:22:37.559Z,100.00
2022-11-21T13:25:12.321Z,100.00
2022-11-21T13:27:43.029Z,100.00
2022-11-21T13:30:12.596Z,100.00
2022-11-21T13:32:59.819Z,100.00
2022-11-21T13:35:26.657Z,100.00
2022-11-21T13:38:12.768Z,100.00
2022-11-21T13:41:06.747Z,100.00
2022-11-21T13:43:34.746Z,100.00
2022-11-21T13:46:02.350Z,100.00
2022-11-21T13:48:31.934Z,100.00
2022-11-21T13:51:30.634Z,100.00
2022-11-21T13:54:55.460Z,100.00
2022-11-21T13:57:46.784Z,100.00
2022-11-21T14:00:44.416Z,100.00
2022-11-21T14:03:49.146Z,100.00
2022-11-21T14:06:39.817Z,100.00
2022-11-21T14:09:21.762Z,100.00
2022-11-21T14:11:55.672Z,100.00
2022-11-21T14:14:49.663Z,100.00
2022-11-21T14:17:34.856Z,100.00
2022-11-21T14:20:22.139Z,100.00
2022-11-21T14:23:03.845Z,100.00
2022-11-21T14:25:50.452Z,100.00
2022-11-21T14:28:32.431Z,100.00
2022-11-21T14:31:08.145Z,100.00
2022-11-21T14:33:39.668Z,100.00
2022-11-21T14:36:22.457Z,100.00
2022-11-21T14:39:35.463Z,100.00
2022-11-21T14:41:56.431Z,100.00
2022-11-21T14:44:24.260Z,100.00
2022-11-21T14:47:03.389Z,100.00
2022-11-21T14:49:30.400Z,100.00
2022-11-21T14:52:28.951Z,100.00
2022-11-21T14:57:46.021Z,100.00
2022-11-21T15:00:58.523Z,100.00
2022-11-21T15:03:23.663Z,100.00
2022-11-21T15:06:09.827Z,100.00
2022-11-21T15:11:35.125Z,100.00
2022-11-21T15:14:25.216Z,100.00
2022-11-21T15:16:55.471Z,100.00
2022-11-21T15:19:28.994Z,100.00
2022-11-21T15:22:03.991Z,100.00
2022-11-21T15:24:42.828Z,100.00
2022-11-21T15:27:31.444Z,100.00
2022-11-21T15:30:10.530Z,100.00
2022-11-21T15:33:01.096Z,100.00
2022-11-21T15:35:47.412Z,100.00
2022-11-21T15:38:26.820Z,100.00
2022-11-21T15:41:10.728Z,100.00
2022-11-21T15:43:48.210Z,100.00
2022-11-21T15:46:26.780Z,100.00
2022-11-21T15:48:55.763Z,100.00
2022-11-21T15:52:05.725Z,100.00
2022-11-21T15:54:23.897Z,100.00
2022-11-21T15:56:51.110Z,99.92
2022-11-21T15:59:20.745Z,100.00
2022-11-21T16:01:49.078Z,100.00
2022-11-21T16:04:18.705Z,100.00
2022-11-21T16:06:51.825Z,100.00
2022-11-21T16:09:18.816Z,100.00
2022-11-21T16:11:47.182Z,100.00
2022-11-21T16:14:18.141Z,100.00
2022-11-21T16:16:45.463Z,100.00
2022-11-21T16:19:14.396Z,100.00
2022-11-21T16:21:42.455Z,99.94
2022-11-21T16:24:09.522Z,100.00
2022-11-21T16:26:36.536Z,100.00
2022-11-21T16:29:06.181Z,100.00
2022-11-21T16:31:34.063Z,100.00
2022-11-21T16:34:01.199Z,99.89
2022-11-21T16:36:31.068Z,100.00
2022-11-21T16:39:05.266Z,99.90
2022-11-21T16:41:35.260Z,99.74
2022-11-21T16:44:02.302Z,100.00
2022-11-21T16:46:29.261Z,99.70
2022-11-21T16:49:02.367Z,100.00
2022-11-21T16:51:30.287Z,99.82
2022-11-21T16:54:00.567Z,100.00
2022-11-21T16:56:29.960Z,100.00
2022-11-21T16:58:56.883Z,99.90
2022-11-21T17:01:26.228Z,100.00
2022-11-21T17:03:53.627Z,100.00
2022-11-21T17:06:24.662Z,99.89
2022-11-21T17:08:51.542Z,99.18
2022-11-21T17:11:28.809Z,99.89
2022-11-21T17:14:00.112Z,100.00
2022-11-21T17:16:28.192Z,100.00
2022-11-21T17:18:58.205Z,100.00
2022-11-21T17:21:26.970Z,99.33
2022-11-21T17:23:54.668Z,99.78
2022-11-21T17:26:25.430Z,99.82
2022-11-21T17:29:01.015Z,99.98
2022-11-21T17:31:28.441Z,100.00
2022-11-21T17:34:01.780Z,100.00
2022-11-21T17:36:30.549Z,100.00
2022-11-21T17:38:57.790Z,100.00
2022-11-21T17:41:25.864Z,99.89
2022-11-21T17:43:57.844Z,99.76
2022-11-21T17:46:25.958Z,100.00
2022-11-21T17:48:57.689Z,99.67
2022-11-21T17:51:29.399Z,99.71
2022-11-21T17:53:57.230Z,99.97
2022-11-21T17:56:27.640Z,99.95
2022-11-21T17:58:54.913Z,99.83
2022-11-21T18:01:22.900Z,100.00
2022-11-21T18:03:57.118Z,99.84
2022-11-21T18:06:29.749Z,99.73
2022-11-21T18:08:58.556Z,99.86
2022-11-21T18:11:36.018Z,99.04
2022-11-21T18:14:07.311Z,99.26
2022-11-21T18:16:34.724Z,99.21
2022-11-21T18:19:02.300Z,99.30
2022-11-21T18:21:32.302Z,99.30
2022-11-21T18:24:00.192Z,99.42
2022-11-21T18:26:30.820Z,99.15
2022-11-21T18:29:34.120Z,99.51
2022-11-21T18:31:48.584Z,99.55
2022-11-21T18:34:15.537Z,99.21
2022-11-21T18:36:42.648Z,99.28
2022-11-21T18:39:14.620Z,99.43
2022-11-21T18:41:43.980Z,99.47
2022-11-21T18:44:14.622Z,99.50
2022-11-21T18:46:44.200Z,99.40
2022-11-21T18:49:11.122Z,99.16
2022-11-21T18:51:38.276Z,98.90
2022-11-21T18:54:08.062Z,99.02
2022-11-21T18:56:37.189Z,99.05
2022-11-21T18:59:05.867Z,99.54
2022-11-21T19:01:35.040Z,98.41
2022-11-21T19:04:02.285Z,98.45
2022-11-21T19:06:29.542Z,99.13
2022-11-21T19:08:58.486Z,98.94
2022-11-21T19:11:29.399Z,98.88
2022-11-21T19:13:58.148Z,98.54
2022-11-21T19:16:28.014Z,98.59
2022-11-21T19:21:43.024Z,98.20
2022-11-21T19:24:13.240Z,98.29
2022-11-21T19:26:40.998Z,97.97
2022-11-21T19:29:09.803Z,97.93
2022-11-21T19:31:44.155Z,97.88
2022-11-21T19:34:14.084Z,98.37
2022-11-21T19:36:42.205Z,97.96
2022-11-21T19:39:09.389Z,97.94
2022-11-21T19:41:37.451Z,97.74
2022-11-21T19:44:04.507Z,98.33
2022-11-21T19:46:35.293Z,97.29
2022-11-21T19:49:03.999Z,97.27
2022-11-21T19:51:35.224Z,97.74
2022-11-21T19:54:04.220Z,97.41
2022-11-21T19:56:31.384Z,97.23
2022-11-21T19:58:59.327Z,97.65
2022-11-21T20:01:32.312Z,97.49
2022-11-21T20:04:02.921Z,97.24
2022-11-21T20:06:37.479Z,96.77
2022-11-21T20:09:15.692Z,97.01
2022-11-21T20:11:46.353Z,96.96
2022-11-21T20:14:22.332Z,96.85
2022-11-21T20:16:52.738Z,96.96
2022-11-21T20:19:22.837Z,97.31
2022-11-21T20:21:51.195Z,96.57
2022-11-21T20:24:18.402Z,97.62
2022-11-21T20:26:46.747Z,97.13
2022-11-21T20:29:15.998Z,96.73
2022-11-21T20:31:44.102Z,96.52
2022-11-21T20:34:13.201Z,97.07
2022-11-21T20:36:40.874Z,97.29
2022-11-21T20:39:16.302Z,97.49
2022-11-21T20:41:44.365Z,97.22
2022-11-21T20:47:03.927Z,97.52
2022-11-21T20:49:31.835Z,97.12
2022-11-21T20:54:46.269Z,97.87
2022-11-21T20:57:15.527Z,97.83
2022-11-21T20:59:43.167Z,98.11
2022-11-21T21:02:14.213Z,98.00
2022-11-21T21:04:42.104Z,97.25
2022-11-21T21:07:09.338Z,98.20
2022-11-21T21:09:36.435Z,98.17
2022-11-21T21:12:05.067Z,97.97
2022-11-21T21:14:31.993Z,98.32
2022-11-21T21:16:59.161Z,98.02
2022-11-21T21:19:26.149Z,97.94
2022-11-21T21:21:53.097Z,97.73
2022-11-21T21:24:20.235Z,97.83
2022-11-21T21:26:49.249Z,97.85
2022-11-21T21:29:20.230Z,98.35
2022-11-21T21:31:51.638Z,98.15
2022-11-21T21:34:21.394Z,98.28
2022-11-21T21:36:48.955Z,98.40
2022-11-21T21:39:15.950Z,98.04
2022-11-21T21:41:47.016Z,98.33
2022-11-21T21:44:15.085Z,97.96
2022-11-21T21:46:42.135Z,98.25
2022-11-21T21:49:09.201Z,98.55
2022-11-21T21:51:37.351Z,98.50
2022-11-21T21:54:04.905Z,98.60
2022-11-21T21:56:32.687Z,99.28
2022-11-21T21:58:59.886Z,99.04
2022-11-21T22:01:32.608Z,98.95
2022-11-21T22:04:03.034Z,98.63
2022-11-21T22:06:34.375Z,99.21
2022-11-21T22:09:01.964Z,99.22
2022-11-21T22:11:37.525Z,99.17
2022-11-21T22:14:10.860Z,99.18
2022-11-21T22:16:38.035Z,99.02
2022-11-21T22:19:04.985Z,99.13
2022-11-21T22:21:35.519Z,99.01
2022-11-21T22:24:24.927Z,99.07
2022-11-21T22:26:53.193Z,99.54
2022-11-21T22:29:20.118Z,99.72
2022-11-21T22:31:47.068Z,99.77
2022-11-21T22:34:14.327Z,99.62
2022-11-21T22:36:41.899Z,99.35
2022-11-21T22:39:09.135Z,99.94
2022-11-21T22:41:36.282Z,99.48
2022-11-21T22:44:03.393Z,99.96
2022-11-21T22:46:31.482Z,99.94
2022-11-21T22:48:58.946Z,100.00
2022-11-21T22:51:31.441Z,99.97
2022-11-21T22:53:58.457Z,100.00
2022-11-21T22:56:26.460Z,100.00
2022-11-21T22:58:53.470Z,100.00
2022-11-21T23:01:23.882Z,100.00
2022-11-21T23:03:51.899Z,100.00
2022-11-21T23:06:25.018Z,100.00
2022-11-21T23:08:53.695Z,100.00
2022-11-21T23:11:27.610Z,100.00
2022-11-21T23:13:56.227Z,100.00
2022-11-21T23:16:23.711Z,100.00
2022-11-21T23:18:53.938Z,100.00
2022-11-21T23:21:21.299Z,100.00
2022-11-21T23:23:48.401Z,100.00
2022-11-21T23:26:15.593Z,100.00
2022-11-21T23:28:42.617Z,100.00
2022-11-21T23:31:10.420Z,100.00
2022-11-21T23:33:37.336Z,100.00
2022-11-21T23:36:04.565Z,100.00
2022-11-21T23:38:31.576Z,100.00
2022-11-21T23:40:58.507Z,100.00
2022-11-21T23:43:25.456Z,100.00
2022-11-21T23:45:53.605Z,100.00
2022-11-21T23:48:21.612Z,100.00
2022-11-21T23:50:50.752Z,100.00
2022-11-21T23:53:19.549Z,100.00
2022-11-21T23:55:47.284Z,100.00
2022-11-21T23:58:15.235Z,100.00
